createdAt,value
2019-01-22T00:02:13.057Z,40.27
2019-01-22T00:04:40.037Z,33.70
2019-01-22T00:07:07.056Z,39.87
2019-01-22T00:09:34.046Z,38.67
2019-01-22T00:12:01.150Z,38.20
2019-01-22T00:14:28.114Z,41.57
2019-01-22T00:16:55.049Z,45.23
2019-01-22T00:19:21.978Z,36.60
2019-01-22T00:21:49.030Z,38.10
2019-01-22T00:24:15.944Z,38.50
2019-01-22T00:26:43.042Z,35.87
2019-01-22T00:29:09.979Z,39.07
2019-01-22T00:31:36.888Z,39.77
2019-01-22T00:34:03.779Z,40.33
2019-01-22T00:36:30.684Z,34.70
2019-01-22T00:38:57.562Z,33.00
2019-01-22T00:41:24.470Z,43.37
2019-01-22T00:43:51.654Z,35.87
2019-01-22T00:46:18.645Z,38.67
2019-01-22T00:48:45.609Z,33.80
2019-01-22T00:51:12.607Z,40.93
2019-01-22T00:53:39.517Z,38.10
2019-01-22T00:56:06.453Z,38.77
2019-01-22T00:58:33.324Z,33.93
2019-01-22T01:01:00.293Z,34.17
2019-01-22T01:03:27.212Z,38.57
2019-01-22T01:05:54.158Z,38.70
2019-01-22T01:08:21.069Z,36.40
2019-01-22T01:10:48.025Z,30.73
2019-01-22T01:13:14.966Z,34.73
2019-01-22T01:15:42.264Z,30.73
2019-01-22T01:18:09.157Z,35.60
2019-01-22T01:20:36.103Z,36.13
2019-01-22T01:23:03.005Z,29.10
2019-01-22T01:25:29.960Z,35.27
2019-01-22T01:27:56.856Z,35.60
2019-01-22T01:30:24.970Z,37.40
2019-01-22T01:32:52.359Z,39.23
2019-01-22T01:35:19.267Z,29.40
2019-01-22T01:37:46.205Z,35.67
2019-01-22T01:40:14.712Z,31.77
2019-01-22T01:42:41.671Z,37.10
2019-01-22T01:45:08.790Z,30.23
2019-01-22T01:47:35.730Z,29.13
2019-01-22T01:50:03.491Z,31.57
2019-01-22T01:52:30.409Z,29.43
2019-01-22T01:54:57.322Z,32.80
2019-01-22T01:57:24.295Z,33.67
2019-01-22T01:59:51.192Z,32.10
2019-01-22T02:02:18.159Z,32.07
2019-01-22T02:04:45.264Z,33.13
2019-01-22T02:07:12.277Z,33.93
2019-01-22T02:09:39.230Z,36.53
2019-01-22T02:12:06.190Z,32.33
2019-01-22T02:14:44.748Z,43.97
2019-01-22T02:17:38.762Z,40.27
2019-01-22T02:20:44.755Z,34.57
2019-01-22T02:23:36.473Z,36.20
2019-01-22T02:26:31.605Z,30.90
2019-01-22T02:29:29.175Z,28.77
2019-01-22T02:32:21.382Z,27.10
2019-01-22T02:34:59.332Z,31.07
2019-01-22T02:37:58.554Z,29.77
2019-01-22T02:40:39.380Z,28.63
2019-01-22T02:43:31.051Z,26.23
2019-01-22T02:46:31.537Z,28.37
2019-01-22T02:49:36.098Z,30.63
2019-01-22T02:52:39.255Z,24.70
2019-01-22T02:55:29.455Z,23.00
2019-01-22T02:58:26.562Z,30.77
2019-01-22T03:01:49.292Z,26.70
2019-01-22T03:04:58.218Z,24.73
2019-01-22T03:07:49.713Z,28.17
2019-01-22T03:10:51.349Z,22.27
2019-01-22T03:14:05.107Z,23.80
2019-01-22T03:17:13.734Z,23.17
2019-01-22T03:20:12.289Z,22.03
2019-01-22T03:23:24.176Z,23.37
2019-01-22T03:26:24.532Z,24.10
2019-01-22T03:29:05.503Z,25.33
2019-01-22T03:32:02.051Z,26.40
2019-01-22T03:34:49.081Z,22.77
2019-01-22T03:37:56.792Z,25.17
2019-01-22T03:40:52.810Z,21.07
2019-01-22T03:43:54.152Z,23.50
2019-01-22T03:46:53.285Z,23.20
2019-01-22T03:49:28.705Z,25.27
2019-01-22T03:52:49.317Z,22.13
2019-01-22T03:55:49.801Z,22.53
2019-01-22T03:58:16.782Z,20.93
2019-01-22T04:00:51.629Z,22.80
2019-01-22T04:03:19.622Z,21.87
2019-01-22T04:05:48.898Z,22.03
2019-01-22T04:08:15.856Z,22.80
2019-01-22T04:11:22.184Z,26.87
2019-01-22T04:13:49.214Z,22.73
2019-01-22T04:16:16.141Z,28.57
2019-01-22T04:18:43.153Z,28.87
2019-01-22T04:21:13.067Z,24.10
2019-01-22T04:24:15.772Z,22.30
2019-01-22T04:27:05.401Z,21.33
2019-01-22T04:30:11.485Z,25.03
2019-01-22T04:32:58.452Z,21.10
2019-01-22T04:36:06.163Z,25.30
2019-01-22T04:39:04.694Z,22.20
2019-01-22T04:42:09.260Z,25.20
2019-01-22T04:44:50.473Z,19.30
2019-01-22T04:47:50.419Z,30.00
2019-01-22T04:50:40.276Z,23.67
2019-01-22T04:54:09.622Z,21.20
2019-01-22T04:57:11.659Z,27.00
2019-01-22T05:00:16.308Z,25.23
2019-01-22T05:03:21.684Z,23.13
2019-01-22T05:06:23.328Z,26.60
2019-01-22T05:09:36.630Z,24.63
2019-01-22T05:12:42.527Z,22.50
2019-01-22T05:16:09.142Z,21.60
2019-01-22T05:19:12.402Z,24.63
2019-01-22T05:21:59.978Z,25.40
2019-01-22T05:25:12.400Z,20.77
2019-01-22T05:28:28.887Z,19.40
2019-01-22T05:31:40.217Z,24.73
2019-01-22T05:34:43.864Z,21.93
2019-01-22T05:37:31.788Z,21.03
2019-01-22T05:40:40.491Z,21.73
2019-01-22T05:43:37.899Z,21.83
2019-01-22T05:46:12.088Z,18.73
2019-01-22T05:48:52.076Z,22.20
2019-01-22T05:51:31.059Z,20.53
2019-01-22T05:54:39.630Z,22.63
2019-01-22T05:57:30.281Z,24.30
2019-01-22T06:00:18.895Z,20.73
2019-01-22T06:03:18.812Z,20.57
2019-01-22T06:06:39.989Z,20.60
2019-01-22T06:09:40.328Z,21.80
2019-01-22T06:12:50.513Z,18.70
2019-01-22T06:15:26.449Z,19.60
2019-01-22T06:18:19.001Z,25.50
2019-01-22T06:20:59.316Z,23.53
2019-01-22T06:24:06.778Z,20.87
2019-01-22T06:26:52.726Z,24.37
2019-01-22T06:30:06.159Z,21.53
2019-01-22T06:33:15.793Z,18.20
2019-01-22T06:36:37.830Z,19.07
2019-01-22T06:39:36.168Z,21.33
2019-01-22T06:42:50.277Z,18.13
2019-01-22T06:45:57.958Z,17.00
2019-01-22T06:49:21.804Z,17.43
2019-01-22T06:52:45.883Z,20.97
2019-01-22T06:55:55.951Z,22.63
2019-01-22T06:59:21.058Z,20.07
2019-01-22T07:02:12.826Z,17.43
2019-01-22T07:05:03.339Z,16.00
2019-01-22T07:08:16.878Z,17.30
2019-01-22T07:11:04.383Z,16.77
2019-01-22T07:14:31.233Z,17.77
2019-01-22T07:17:26.249Z,17.80
2019-01-22T07:20:52.999Z,17.27
2019-01-22T07:24:02.951Z,20.37
2019-01-22T07:27:01.493Z,18.13
2019-01-22T07:29:59.332Z,18.87
2019-01-22T07:32:55.591Z,17.80
2019-01-22T07:35:29.484Z,17.87
2019-01-22T07:38:17.308Z,18.50
2019-01-22T07:41:13.645Z,16.10
2019-01-22T07:43:51.555Z,18.87
2019-01-22T07:47:08.430Z,16.70
2019-01-22T07:50:07.119Z,20.10
2019-01-22T07:52:58.138Z,19.20
2019-01-22T07:55:49.159Z,14.47
2019-01-22T07:58:40.903Z,12.63
2019-01-22T08:01:19.738Z,16.37
2019-01-22T08:04:53.205Z,15.20
2019-01-22T08:07:54.304Z,16.03
2019-01-22T08:11:04.608Z,13.50
2019-01-22T08:13:52.574Z,16.63
2019-01-22T08:16:58.515Z,13.97
2019-01-22T08:20:03.675Z,15.37
2019-01-22T08:23:05.462Z,14.33
2019-01-22T08:26:03.597Z,16.93
2019-01-22T08:28:47.776Z,15.90
2019-01-22T08:31:36.647Z,14.40
2019-01-22T08:34:45.418Z,13.43
2019-01-22T08:38:08.123Z,15.43
2019-01-22T08:41:18.646Z,14.27
2019-01-22T08:44:06.818Z,19.00
2019-01-22T08:47:21.658Z,13.10
2019-01-22T08:50:14.928Z,13.17
2019-01-22T08:52:55.833Z,17.43
2019-01-22T08:56:03.264Z,14.27
2019-01-22T08:58:59.261Z,16.63
2019-01-22T09:01:51.286Z,14.03
2019-01-22T09:04:51.050Z,19.20
2019-01-22T09:07:58.398Z,15.23
2019-01-22T09:11:09.426Z,16.60
2019-01-22T09:14:14.541Z,16.90
2019-01-22T09:17:33.571Z,15.93
2019-01-22T09:20:33.159Z,14.80
2019-01-22T09:23:25.689Z,15.87
2019-01-22T09:26:06.877Z,13.27
2019-01-22T09:29:17.883Z,19.70
2019-01-22T09:32:21.797Z,16.10
2019-01-22T09:35:26.453Z,17.50
2019-01-22T09:38:00.083Z,19.30
2019-01-22T09:40:27.049Z,16.20
2019-01-22T09:42:53.981Z,18.03
2019-01-22T09:45:20.944Z,15.07
2019-01-22T09:47:47.878Z,13.00
2019-01-22T09:50:14.825Z,21.17
2019-01-22T09:52:41.878Z,20.27
2019-01-22T09:55:09.986Z,16.57
2019-01-22T09:57:37.341Z,18.80
2019-01-22T10:00:05.678Z,15.13
2019-01-22T10:02:32.625Z,15.67
2019-01-22T10:04:59.551Z,19.83
2019-01-22T10:07:26.503Z,22.40
2019-01-22T10:09:53.489Z,17.30
2019-01-22T10:12:20.524Z,17.40
2019-01-22T10:14:47.440Z,18.10
2019-01-22T10:17:31.433Z,18.03
2019-01-22T10:20:26.977Z,15.80
2019-01-22T10:23:06.267Z,19.77
2019-01-22T10:25:33.663Z,19.03
2019-01-22T10:28:01.408Z,19.77
2019-01-22T10:30:28.514Z,17.23
2019-01-22T10:32:55.448Z,24.70
2019-01-22T10:35:22.444Z,35.90
2019-01-22T10:37:49.395Z,24.10
2019-01-22T10:40:18.167Z,21.53
2019-01-22T10:42:45.147Z,23.27
2019-01-22T10:45:14.202Z,25.60
2019-01-22T10:47:41.148Z,23.40
2019-01-22T10:50:08.801Z,23.73
2019-01-22T10:52:37.027Z,21.67
2019-01-22T10:55:05.410Z,22.17
2019-01-22T10:57:32.344Z,17.97
2019-01-22T10:59:59.289Z,20.47
2019-01-22T11:02:26.333Z,18.20
2019-01-22T11:04:53.228Z,21.77
2019-01-22T11:07:20.199Z,19.47
2019-01-22T11:09:47.084Z,19.53
2019-01-22T11:12:14.088Z,25.53
2019-01-22T11:14:41.045Z,20.20
2019-01-22T11:17:08.054Z,22.73
2019-01-22T11:19:34.958Z,19.53
2019-01-22T11:22:01.904Z,22.83
2019-01-22T11:24:30.410Z,20.50
2019-01-22T11:26:57.559Z,17.63
2019-01-22T11:29:24.695Z,20.07
2019-01-22T11:31:51.591Z,19.23
2019-01-22T11:34:18.546Z,17.13
2019-01-22T11:36:45.548Z,14.80
2019-01-22T11:39:12.478Z,16.90
2019-01-22T11:41:39.379Z,20.10
2019-01-22T11:44:06.742Z,20.10
2019-01-22T11:46:33.630Z,16.73
2019-01-22T11:49:03.633Z,17.17
2019-01-22T11:51:30.548Z,19.67
2019-01-22T11:53:57.970Z,21.87
2019-01-22T11:56:25.037Z,22.73
2019-01-22T11:58:51.987Z,19.63
2019-01-22T12:01:18.914Z,22.07
2019-01-22T12:03:45.939Z,20.13
2019-01-22T12:06:12.926Z,19.93
2019-01-22T12:08:40.120Z,21.53
2019-01-22T12:11:07.084Z,24.37
2019-01-22T12:13:34.007Z,23.93
2019-01-22T12:16:01.198Z,24.50
2019-01-22T12:18:28.296Z,19.43
2019-01-22T12:20:55.300Z,24.87
2019-01-22T12:23:22.228Z,22.20
2019-01-22T12:25:49.138Z,23.07
2019-01-22T12:28:16.237Z,20.57
2019-01-22T12:30:43.260Z,21.17
2019-01-22T12:33:10.657Z,21.47
2019-01-22T12:35:37.592Z,21.70
2019-01-22T12:38:05.002Z,24.07
2019-01-22T12:40:31.926Z,33.10
2019-01-22T12:43:02.151Z,22.13
2019-01-22T12:45:35.398Z,22.80
2019-01-22T12:48:02.614Z,24.03
2019-01-22T12:50:29.937Z,19.63
2019-01-22T12:52:57.011Z,18.50
2019-01-22T12:55:23.982Z,24.10
2019-01-22T12:57:50.862Z,22.93
2019-01-22T13:00:22.962Z,26.90
2019-01-22T13:02:49.894Z,24.33
2019-01-22T13:05:21.574Z,31.37
2019-01-22T13:07:48.479Z,23.43
2019-01-22T13:10:15.501Z,29.30
2019-01-22T13:12:42.399Z,26.33
2019-01-22T13:15:09.396Z,34.90
2019-01-22T13:17:36.308Z,23.40
2019-01-22T13:20:05.856Z,25.97
2019-01-22T13:22:32.771Z,26.60
2019-01-22T13:24:59.805Z,29.97
2019-01-22T13:27:26.712Z,34.20
2019-01-22T13:29:53.668Z,30.03
2019-01-22T13:32:20.580Z,29.00
2019-01-22T13:34:47.609Z,30.30
2019-01-22T13:37:14.533Z,27.27
2019-01-22T13:39:41.508Z,29.90
2019-01-22T13:42:08.408Z,35.30
2019-01-22T13:44:35.419Z,34.53
2019-01-22T13:47:02.325Z,27.93
2019-01-22T13:49:29.254Z,31.27
2019-01-22T13:51:56.159Z,27.20
2019-01-22T13:54:23.143Z,36.80
2019-01-22T13:56:50.075Z,33.67
2019-01-22T13:59:17.111Z,30.90
2019-01-22T14:01:44.007Z,29.33
2019-01-22T14:04:10.979Z,33.03
2019-01-22T14:06:37.951Z,31.30
2019-01-22T14:09:06.856Z,32.43
2019-01-22T14:11:34.062Z,36.00
2019-01-22T14:14:00.979Z,31.77
2019-01-22T14:16:27.959Z,33.57
2019-01-22T14:18:54.854Z,37.97
2019-01-22T14:21:21.808Z,30.67
2019-01-22T14:23:48.711Z,35.10
2019-01-22T14:26:15.833Z,30.60
2019-01-22T14:28:42.755Z,35.97
2019-01-22T14:31:09.735Z,32.60
2019-01-22T14:33:36.675Z,32.10
2019-01-22T14:36:04.345Z,35.83
2019-01-22T14:38:31.284Z,38.07
2019-01-22T14:40:58.204Z,33.40
2019-01-22T14:43:25.105Z,30.90
2019-01-22T14:45:52.043Z,33.20
2019-01-22T14:48:19.012Z,38.10
2019-01-22T14:50:45.933Z,39.33
2019-01-22T14:53:13.144Z,38.40
2019-01-22T14:55:40.136Z,44.60
2019-01-22T14:58:07.103Z,33.17
2019-01-22T15:00:34.049Z,35.00
2019-01-22T15:03:01.072Z,48.50
2019-01-22T15:05:28.168Z,28.60
2019-01-22T15:07:55.090Z,37.23
2019-01-22T15:10:22.069Z,37.57
2019-01-22T15:12:50.919Z,32.83
2019-01-22T15:15:18.196Z,36.60
2019-01-22T15:17:45.125Z,38.50
2019-01-22T15:20:20.000Z,34.67
2019-01-22T15:22:47.137Z,40.93
2019-01-22T15:25:14.075Z,35.77
2019-01-22T15:27:41.026Z,36.83
2019-01-22T15:30:13.998Z,37.87
2019-01-22T15:32:41.040Z,39.70
2019-01-22T15:35:08.993Z,38.47
2019-01-22T15:37:35.938Z,32.33
2019-01-22T15:40:04.900Z,49.83
2019-01-22T15:42:31.992Z,36.57
2019-01-22T15:45:05.884Z,37.50
2019-01-22T15:47:27.976Z,29.70
2019-01-22T15:49:54.879Z,31.93
2019-01-22T15:52:21.803Z,34.03
2019-01-22T15:54:48.704Z,32.30
2019-01-22T15:57:15.857Z,37.80
2019-01-22T15:59:42.842Z,40.30
2019-01-22T16:02:09.897Z,37.07
2019-01-22T16:04:36.789Z,30.90
2019-01-22T16:07:03.853Z,34.93
2019-01-22T16:09:30.748Z,33.83
2019-01-22T16:11:57.846Z,38.27
2019-01-22T16:14:24.766Z,32.67
2019-01-22T16:16:51.703Z,31.90
2019-01-22T16:19:18.632Z,37.37
2019-01-22T16:21:45.861Z,34.40
2019-01-22T16:24:12.778Z,28.90
2019-01-22T16:26:39.754Z,31.10
2019-01-22T16:29:07.002Z,31.60
2019-01-22T16:31:33.950Z,32.87
2019-01-22T16:34:02.285Z,30.60
2019-01-22T16:36:29.615Z,30.80
2019-01-22T16:38:56.588Z,30.53
2019-01-22T16:41:23.519Z,33.83
2019-01-22T16:43:50.580Z,32.07
2019-01-22T16:46:17.504Z,31.20
2019-01-22T16:48:44.550Z,30.97
2019-01-22T16:51:11.563Z,30.60
2019-01-22T16:53:38.506Z,30.73
2019-01-22T16:56:05.511Z,34.77
2019-01-22T16:58:32.583Z,30.73
2019-01-22T17:00:59.512Z,42.23
2019-01-22T17:03:26.472Z,32.70
2019-01-22T17:05:53.482Z,41.87
2019-01-22T17:08:20.437Z,37.07
2019-01-22T17:10:47.408Z,33.83
2019-01-22T17:13:14.417Z,29.53
2019-01-22T17:15:41.329Z,36.60
2019-01-22T17:18:08.635Z,29.20
2019-01-22T17:20:38.282Z,36.93
2019-01-22T17:23:05.315Z,35.60
2019-01-22T17:25:32.311Z,34.60
2019-01-22T17:27:59.441Z,38.27
2019-01-22T17:30:26.603Z,36.87
2019-01-22T17:33:09.561Z,36.57
2019-01-22T17:35:39.178Z,37.37
2019-01-22T17:38:06.123Z,44.93
2019-01-22T17:40:33.043Z,32.73
2019-01-22T17:43:00.026Z,37.27
2019-01-22T17:45:27.017Z,38.03
2019-01-22T17:47:53.932Z,37.13
2019-01-22T17:50:20.864Z,35.33
2019-01-22T17:52:47.784Z,40.10
2019-01-22T17:55:14.710Z,37.00
2019-01-22T17:57:41.905Z,37.30
2019-01-22T18:00:11.633Z,38.13
2019-01-22T18:02:38.539Z,40.63
2019-01-22T18:05:07.011Z,38.40
2019-01-22T18:07:34.005Z,34.70
2019-01-22T18:10:00.930Z,35.20
2019-01-22T18:12:27.653Z,35.10
2019-01-22T18:14:55.026Z,32.40
2019-01-22T18:17:22.257Z,34.73
2019-01-22T18:19:49.221Z,36.30
2019-01-22T18:22:16.114Z,38.40
2019-01-22T18:24:43.037Z,34.47
2019-01-22T18:27:09.959Z,35.07
2019-01-22T18:29:36.894Z,38.93
2019-01-22T18:32:03.814Z,37.93
2019-01-22T18:34:30.733Z,35.70
2019-01-22T18:36:57.617Z,39.07
2019-01-22T18:39:24.570Z,35.53
2019-01-22T18:41:51.482Z,39.03
2019-01-22T18:44:18.637Z,35.87
2019-01-22T18:46:45.529Z,34.27
2019-01-22T18:49:12.484Z,36.10
2019-01-22T18:51:39.539Z,33.97
2019-01-22T18:54:06.475Z,34.30
2019-01-22T18:56:33.524Z,34.40
2019-01-22T18:59:00.416Z,38.03
2019-01-22T19:01:27.357Z,35.57
2019-01-22T19:03:54.251Z,35.50
2019-01-22T19:06:21.211Z,39.73
2019-01-22T19:08:50.450Z,37.43
2019-01-22T19:11:17.372Z,33.07
2019-01-22T19:13:44.293Z,40.80
2019-01-22T19:16:11.284Z,36.00
2019-01-22T19:18:38.258Z,39.33
2019-01-22T19:21:05.187Z,33.23
2019-01-22T19:23:32.188Z,35.50
2019-01-22T19:25:59.150Z,32.57
2019-01-22T19:28:26.137Z,36.73
2019-01-22T19:30:53.062Z,36.70
2019-01-22T19:33:19.979Z,32.30
2019-01-22T19:35:47.713Z,31.03
2019-01-22T19:38:14.627Z,31.87
2019-01-22T19:40:41.594Z,31.93
2019-01-22T19:43:08.640Z,32.90
2019-01-22T19:45:35.853Z,32.30
2019-01-22T19:48:02.797Z,33.47
2019-01-22T19:50:29.736Z,31.93
2019-01-22T19:52:56.797Z,32.37
2019-01-22T19:55:23.736Z,36.07
2019-01-22T19:57:50.792Z,35.10
2019-01-22T20:00:32.172Z,36.97
2019-01-22T20:02:59.403Z,33.53
2019-01-22T20:05:27.038Z,37.33
2019-01-22T20:07:56.020Z,29.80
2019-01-22T20:10:22.957Z,35.70
2019-01-22T20:12:49.864Z,33.77
2019-01-22T20:15:16.916Z,33.93
2019-01-22T20:17:43.915Z,37.00
2019-01-22T20:20:13.510Z,37.03
2019-01-22T20:22:41.003Z,30.03
2019-01-22T20:25:08.680Z,29.50
2019-01-22T20:27:35.639Z,31.73
2019-01-22T20:30:04.088Z,30.77
2019-01-22T20:32:30.998Z,33.70
2019-01-22T20:34:58.059Z,33.70
2019-01-22T20:37:24.985Z,38.27
2019-01-22T20:39:51.907Z,30.30
2019-01-22T20:42:18.826Z,32.03
2019-01-22T20:44:45.774Z,36.60
2019-01-22T20:47:12.831Z,34.97
2019-01-22T20:49:39.791Z,29.30
2019-01-22T20:52:06.792Z,32.67
2019-01-22T20:54:33.699Z,33.20
2019-01-22T20:57:00.621Z,35.80
2019-01-22T20:59:27.528Z,32.30
2019-01-22T21:01:54.516Z,35.90
2019-01-22T21:04:21.395Z,34.27
2019-01-22T21:06:48.339Z,30.60
2019-01-22T21:09:15.258Z,33.63
2019-01-22T21:11:42.316Z,38.33
2019-01-22T21:14:09.359Z,34.37
2019-01-22T21:16:36.479Z,33.73
2019-01-22T21:19:03.372Z,38.43
2019-01-22T21:21:30.296Z,34.20
2019-01-22T21:23:57.303Z,38.03
2019-01-22T21:26:24.295Z,31.63
2019-01-22T21:28:51.312Z,40.67
2019-01-22T21:31:18.443Z,37.03
2019-01-22T21:33:45.359Z,34.03
2019-01-22T21:36:12.329Z,33.87
2019-01-22T21:38:39.273Z,30.33
2019-01-22T21:41:06.283Z,36.83
2019-01-22T21:43:33.217Z,40.60
2019-01-22T21:46:00.125Z,39.33
2019-01-22T21:48:27.047Z,33.60
2019-01-22T21:50:53.968Z,37.20
2019-01-22T21:53:20.881Z,34.33
2019-01-22T21:55:47.772Z,39.43
2019-01-22T21:58:14.743Z,36.43
2019-01-22T22:00:41.633Z,38.67
2019-01-22T22:03:08.598Z,36.17
2019-01-22T22:05:35.558Z,36.60
2019-01-22T22:08:02.994Z,37.67
2019-01-22T22:10:29.928Z,34.33
2019-01-22T22:12:56.845Z,32.40
2019-01-22T22:15:23.981Z,35.87
2019-01-22T22:17:50.905Z,33.20
2019-01-22T22:20:17.987Z,37.33
2019-01-22T22:22:44.954Z,33.97
2019-01-22T22:25:13.556Z,38.10
2019-01-22T22:27:40.595Z,36.63
2019-01-22T22:30:11.699Z,35.50
2019-01-22T22:32:38.629Z,32.47
2019-01-22T22:35:05.660Z,41.93
2019-01-22T22:37:32.574Z,44.47
2019-01-22T22:39:59.462Z,38.20
2019-01-22T22:42:26.452Z,43.27
2019-01-22T22:44:53.370Z,38.67
2019-01-22T22:47:20.326Z,43.13
2019-01-22T22:49:47.273Z,42.70
2019-01-22T22:52:14.142Z,41.97
2019-01-22T22:54:41.074Z,34.30
2019-01-22T22:57:07.977Z,39.03
2019-01-22T22:59:34.908Z,36.53
2019-01-22T23:02:01.836Z,30.40
2019-01-22T23:04:28.798Z,33.13
2019-01-22T23:06:55.750Z,34.20
2019-01-22T23:09:22.680Z,37.87
2019-01-22T23:11:49.737Z,37.03
2019-01-22T23:14:16.658Z,40.07
2019-01-22T23:16:43.541Z,41.67
2019-01-22T23:19:10.479Z,36.23
2019-01-22T23:21:37.377Z,50.53
2019-01-22T23:24:04.488Z,37.57
2019-01-22T23:26:31.377Z,34.37
2019-01-22T23:28:58.350Z,43.80
2019-01-22T23:31:25.291Z,33.53
2019-01-22T23:33:52.320Z,33.10
2019-01-22T23:36:19.222Z,30.53
2019-01-22T23:38:46.148Z,27.17
2019-01-22T23:41:13.046Z,25.10
2019-01-22T23:43:39.973Z,28.83
2019-01-22T23:46:06.865Z,33.73
2019-01-22T23:48:33.860Z,29.27
2019-01-22T23:51:00.760Z,30.27
2019-01-22T23:53:27.699Z,31.93
2019-01-22T23:55:54.610Z,35.80
2019-01-22T23:58:21.577Z,32.47
